PWSweather.com
Personal Weather Stations
Station Observations
COONRAPIDS
Minneapolis, MN 55433

Minneapolis, MN 55433

Lat: 45.187721, Lon: -93.36828

Elevation: 898

Station Type: Davis Vantage Pro 2

High Low Average
Temperature 46.6°F8.1°C 29.5°F-1.4°C 37.2°F2.9°C
Dew Point 35.2°F1.8°C 19.1°F-7.2°C 26.9°F-2.8°C
Winds 8.1 mph 13.0 kmh Calm Calm 2.0 mph WSW3.2 kmh WSW
Wind Gusts 25.3 mph40.7 kmh -- 5.0 mph8.0 kmh
Humidity 83% 45% 67%
Pressure 30.06 in1017.9 mb 29.85 in1010.8 mb -
Precipitation 0.03 in0.8 mm - -
Hour Temp Dew Point Humidity Winds Wind Gusts Pressure Precip Precip Rate Daily Precip Total
12:00 AM 34.6°F1.4°C 24.1°F-4.4°C 65% Calm Calm -- 30.00 in1015.9 mb - 0.00 in0.0 mm 0.00 in0.0 mm
12:10 AM 34.5°F1.4°C 23.9°F-4.5°C 65% Calm Calm -- 30.00 in1015.9 mb - 0.00 in0.0 mm 0.00 in0.0 mm
12:20 AM 34.3°F1.3°C 24.1°F-4.4°C 66% Calm Calm 2.3 mph3.7 kmh 30.00 in1015.9 mb - 0.00 in0.0 mm 0.00 in0.0 mm
12:30 AM 34.2°F1.2°C 24.0°F-4.4°C 66% Calm Calm -- 30.00 in1015.9 mb - 0.00 in0.0 mm 0.00 in0.0 mm
12:40 AM 34.0°F1.1°C 24.2°F-4.3°C 67% Calm Calm -- 30.00 in1015.9 mb - 0.00 in0.0 mm 0.00 in0.0 mm
12:50 AM 33.7°F0.9°C 23.9°F-4.5°C 67% Calm Calm -- 30.00 in1015.9 mb - 0.00 in0.0 mm 0.00 in0.0 mm
01:00 AM 33.4°F0.8°C 24.0°F-4.4°C 68% Calm Calm -- 30.00 in1015.9 mb - 0.00 in0.0 mm 0.00 in0.0 mm
01:10 AM 33.0°F0.6°C 23.9°F-4.5°C 69% Calm Calm -- 29.99 in1015.6 mb - 0.00 in0.0 mm 0.00 in0.0 mm
01:20 AM 32.6°F0.3°C 23.9°F-4.5°C 70% Calm Calm -- 29.99 in1015.6 mb - 0.00 in0.0 mm 0.00 in0.0 mm
01:30 AM 32.1°F0.1°C 23.8°F-4.6°C 71% Calm Calm -- 29.99 in1015.6 mb - 0.00 in0.0 mm 0.00 in0.0 mm
01:40 AM 31.7°F-0.2°C 23.7°F-4.6°C 72% Calm Calm -- 29.99 in1015.6 mb - 0.00 in0.0 mm 0.00 in0.0 mm
01:50 AM 31.4°F-0.3°C 23.8°F-4.6°C 73% Calm Calm -- 29.98 in1015.2 mb - 0.00 in0.0 mm 0.00 in0.0 mm
02:00 AM 31.1°F-0.5°C 23.5°F-4.7°C 73% Calm Calm -- 29.98 in1015.2 mb - 0.00 in0.0 mm 0.00 in0.0 mm
02:10 AM 30.8°F-0.7°C 23.5°F-4.7°C 74% Calm Calm -- 29.98 in1015.2 mb - 0.00 in0.0 mm 0.00 in0.0 mm
02:20 AM 30.7°F-0.7°C 23.4°F-4.8°C 74% Calm Calm -- 29.98 in1015.2 mb - 0.00 in0.0 mm 0.00 in0.0 mm
02:30 AM 30.5°F-0.8°C 23.5°F-4.7°C 75% Calm Calm -- 29.98 in1015.2 mb - 0.00 in0.0 mm 0.00 in0.0 mm
02:40 AM 30.3°F-0.9°C 23.3°F-4.8°C 75% Calm Calm -- 29.97 in1014.9 mb - 0.00 in0.0 mm 0.00 in0.0 mm
02:50 AM 30.2°F-1.0°C 23.6°F-4.7°C 76% Calm Calm -- 29.97 in1014.9 mb - 0.00 in0.0 mm 0.00 in0.0 mm
03:00 AM 30.2°F-1.0°C 23.9°F-4.5°C 77% Calm Calm -- 29.97 in1014.9 mb - 0.00 in0.0 mm 0.00 in0.0 mm
03:10 AM 30.3°F-0.9°C 24.3°F-4.3°C 78% Calm Calm -- 29.97 in1014.9 mb - 0.00 in0.0 mm 0.00 in0.0 mm
03:20 AM 30.4°F-0.9°C 24.4°F-4.2°C 78% Calm Calm -- 29.96 in1014.6 mb - 0.00 in0.0 mm 0.00 in0.0 mm
03:30 AM 30.4°F-0.9°C 24.7°F-4.1°C 79% Calm Calm -- 29.96 in1014.6 mb - 0.00 in0.0 mm 0.00 in0.0 mm
03:40 AM 30.2°F-1.0°C 24.5°F-4.2°C 79% Calm Calm -- 29.96 in1014.6 mb - 0.00 in0.0 mm 0.00 in0.0 mm
03:50 AM 29.9°F-1.2°C 24.5°F-4.2°C 80% Calm Calm -- 29.96 in1014.6 mb - 0.00 in0.0 mm 0.00 in0.0 mm
04:00 AM 29.9°F-1.2°C 24.8°F-4.0°C 81% Calm Calm -- 29.96 in1014.6 mb - 0.00 in0.0 mm 0.00 in0.0 mm
04:10 AM 30.1°F-1.1°C 25.0°F-3.9°C 81% Calm Calm -- 29.96 in1014.6 mb - 0.00 in0.0 mm 0.00 in0.0 mm
04:20 AM 30.1°F-1.1°C 25.3°F-3.7°C 82% Calm Calm 2.3 mph3.7 kmh 29.95 in1014.2 mb - 0.00 in0.0 mm 0.00 in0.0 mm
04:30 AM 30.1°F-1.1°C 25.3°F-3.7°C 82% Calm Calm -- 29.95 in1014.2 mb - 0.00 in0.0 mm 0.00 in0.0 mm
04:40 AM 30.1°F-1.1°C 25.3°F-3.7°C 82% Calm Calm -- 29.95 in1014.2 mb - 0.00 in0.0 mm 0.00 in0.0 mm
04:50 AM 30.2°F-1.0°C 25.4°F-3.7°C 82% Calm Calm -- 29.95 in1014.2 mb - 0.00 in0.0 mm 0.00 in0.0 mm
05:00 AM 30.2°F-1.0°C 25.7°F-3.5°C 83% Calm Calm -- 29.95 in1014.2 mb - 0.00 in0.0 mm 0.00 in0.0 mm
05:10 AM 30.3°F-0.9°C 25.8°F-3.4°C 83% Calm Calm 1.2 mph1.9 kmh 29.95 in1014.2 mb - 0.00 in0.0 mm 0.00 in0.0 mm
05:20 AM 30.4°F-0.9°C 25.9°F-3.4°C 83% Calm Calm -- 29.95 in1014.2 mb - 0.00 in0.0 mm 0.00 in0.0 mm
05:30 AM 30.3°F-0.9°C 25.8°F-3.4°C 83% Calm Calm 2.3 mph3.7 kmh 29.95 in1014.2 mb - 0.00 in0.0 mm 0.00 in0.0 mm
05:40 AM 30.3°F-0.9°C 25.8°F-3.4°C 83% Calm Calm -- 29.94 in1013.9 mb - 0.00 in0.0 mm 0.00 in0.0 mm
05:50 AM 30.2°F-1.0°C 25.7°F-3.5°C 83% 1.2 mph SW1.9 kmh SW 3.5 mph5.6 kmh 29.94 in1013.9 mb - 0.00 in0.0 mm 0.00 in0.0 mm
06:00 AM 30.2°F-1.0°C 25.7°F-3.5°C 83% Calm Calm -- 29.95 in1014.2 mb - 0.00 in0.0 mm 0.00 in0.0 mm
06:10 AM 30.3°F-0.9°C 25.8°F-3.4°C 83% 1.2 mph SW1.9 kmh SW 3.5 mph5.6 kmh 29.95 in1014.2 mb - 0.00 in0.0 mm 0.00 in0.0 mm
06:20 AM 30.4°F-0.9°C 25.9°F-3.4°C 83% Calm Calm -- 29.95 in1014.2 mb - 0.00 in0.0 mm 0.00 in0.0 mm
06:30 AM 30.5°F-0.8°C 25.9°F-3.4°C 83% 1.2 mph SW1.9 kmh SW 2.3 mph3.7 kmh 29.94 in1013.9 mb - 0.00 in0.0 mm 0.00 in0.0 mm
06:40 AM 30.7°F-0.7°C 26.1°F-3.3°C 83% 1.2 mph SW1.9 kmh SW 3.5 mph5.6 kmh 29.94 in1013.9 mb - 0.00 in0.0 mm 0.00 in0.0 mm
06:50 AM 31.2°F-0.4°C 26.6°F-3.0°C 83% Calm Calm -- 29.94 in1013.9 mb - 0.00 in0.0 mm 0.00 in0.0 mm
07:00 AM 31.7°F-0.2°C 27.1°F-2.7°C 83% 1.2 mph SSW1.9 kmh SSW 3.5 mph5.6 kmh 29.94 in1013.9 mb - 0.00 in0.0 mm 0.00 in0.0 mm
07:10 AM 32.3°F0.2°C 27.4°F-2.6°C 82% 2.3 mph SSW3.7 kmh SSW 2.3 mph3.7 kmh 29.93 in1013.5 mb - 0.00 in0.0 mm 0.00 in0.0 mm
07:20 AM 32.8°F0.4°C 27.6°F-2.4°C 81% Calm Calm 3.5 mph5.6 kmh 29.93 in1013.5 mb - 0.00 in0.0 mm 0.00 in0.0 mm
07:30 AM 33.2°F0.7°C 27.7°F-2.4°C 80% 1.2 mph SW1.9 kmh SW 8.1 mph13.0 kmh 29.93 in1013.5 mb - 0.00 in0.0 mm 0.00 in0.0 mm
07:40 AM 33.5°F0.8°C 28.0°F-2.2°C 80% Calm Calm -- 29.93 in1013.5 mb - 0.00 in0.0 mm 0.00 in0.0 mm
07:50 AM 34.2°F1.2°C 28.7°F-1.8°C 80% Calm Calm 3.5 mph5.6 kmh 29.92 in1013.2 mb - 0.00 in0.0 mm 0.00 in0.0 mm
08:00 AM 35.1°F1.7°C 29.2°F-1.6°C 79% Calm Calm 3.5 mph5.6 kmh 29.92 in1013.2 mb - 0.00 in0.0 mm 0.00 in0.0 mm
08:10 AM 36.3°F2.4°C 29.7°F-1.3°C 77% 1.2 mph SSW1.9 kmh SSW 3.5 mph5.6 kmh 29.92 in1013.2 mb - 0.00 in0.0 mm 0.00 in0.0 mm
08:20 AM 37.0°F2.8°C 29.8°F-1.2°C 75% 2.3 mph WSW3.7 kmh WSW 4.6 mph7.4 kmh 29.91 in1012.9 mb - 0.00 in0.0 mm 0.00 in0.0 mm
08:30 AM 37.2°F2.9°C 29.7°F-1.3°C 74% 3.5 mph SSW5.6 kmh SSW 5.8 mph9.3 kmh 29.91 in1012.9 mb - 0.00 in0.0 mm 0.00 in0.0 mm
08:40 AM 38.0°F3.3°C 30.1°F-1.1°C 73% 2.3 mph S3.7 kmh S 3.5 mph5.6 kmh 29.91 in1012.9 mb - 0.00 in0.0 mm 0.00 in0.0 mm
08:50 AM 38.4°F3.6°C 30.2°F-1.0°C 72% 2.3 mph SW3.7 kmh SW 4.6 mph7.4 kmh 29.91 in1012.9 mb - 0.00 in0.0 mm 0.00 in0.0 mm
09:00 AM 39.4°F4.1°C 30.8°F-0.7°C 71% 4.6 mph SW7.4 kmh SW 6.9 mph11.1 kmh 29.91 in1012.9 mb - 0.00 in0.0 mm 0.00 in0.0 mm
09:10 AM 39.7°F4.3°C 30.7°F-0.7°C 70% 3.5 mph SW5.6 kmh SW 3.5 mph5.6 kmh 29.90 in1012.5 mb - 0.00 in0.0 mm 0.00 in0.0 mm
09:20 AM 39.7°F4.3°C 30.7°F-0.7°C 70% 1.2 mph SW1.9 kmh SW 6.9 mph11.1 kmh 29.90 in1012.5 mb - 0.00 in0.0 mm 0.00 in0.0 mm
09:30 AM 39.6°F4.2°C 30.3°F-0.9°C 69% 3.5 mph WSW5.6 kmh WSW 6.9 mph11.1 kmh 29.90 in1012.5 mb - 0.00 in0.0 mm 0.00 in0.0 mm
09:40 AM 39.9°F4.4°C 30.9°F-0.6°C 70% 1.2 mph SW1.9 kmh SW 3.5 mph5.6 kmh 29.90 in1012.5 mb - 0.00 in0.0 mm 0.00 in0.0 mm
09:50 AM 40.5°F4.7°C 30.8°F-0.7°C 68% 4.6 mph SSW7.4 kmh SSW 8.1 mph13.0 kmh 29.90 in1012.5 mb - 0.00 in0.0 mm 0.00 in0.0 mm
10:00 AM 41.2°F5.1°C 31.4°F-0.3°C 68% 1.2 mph SW1.9 kmh SW 5.8 mph9.3 kmh 29.89 in1012.2 mb - 0.00 in0.0 mm 0.00 in0.0 mm
10:10 AM 43.3°F6.3°C 32.4°F0.2°C 65% 3.5 mph SW5.6 kmh SW 8.1 mph13.0 kmh 29.89 in1012.2 mb - 0.00 in0.0 mm 0.00 in0.0 mm
10:20 AM 42.7°F5.9°C 31.7°F-0.2°C 65% 3.5 mph WSW5.6 kmh WSW 8.1 mph13.0 kmh 29.88 in1011.9 mb - 0.00 in0.0 mm 0.00 in0.0 mm
10:30 AM 42.8°F6.0°C 31.5°F-0.3°C 64% 2.3 mph SW3.7 kmh SW 9.2 mph14.8 kmh 29.87 in1011.5 mb - 0.00 in0.0 mm 0.00 in0.0 mm
10:40 AM 44.2°F6.8°C 32.4°F0.2°C 63% 3.5 mph SW5.6 kmh SW 6.9 mph11.1 kmh 29.87 in1011.5 mb - 0.00 in0.0 mm 0.00 in0.0 mm
10:50 AM 45.1°F7.3°C 31.6°F-0.2°C 59% 3.5 mph SSW5.6 kmh SSW 4.6 mph7.4 kmh 29.87 in1011.5 mb - 0.00 in0.0 mm 0.00 in0.0 mm
11:00 AM 44.9°F7.2°C 31.4°F-0.3°C 59% 4.6 mph WSW7.4 kmh WSW 11.5 mph18.5 kmh 29.87 in1011.5 mb - 0.00 in0.0 mm 0.00 in0.0 mm
11:10 AM 45.6°F7.6°C 31.7°F-0.2°C 58% 6.9 mph SW11.1 kmh SW 8.1 mph13.0 kmh 29.87 in1011.5 mb - 0.00 in0.0 mm 0.00 in0.0 mm
11:20 AM 45.5°F7.5°C 31.6°F-0.2°C 58% 6.9 mph SW11.1 kmh SW 12.7 mph20.4 kmh 29.87 in1011.5 mb - 0.00 in0.0 mm 0.00 in0.0 mm
11:30 AM 46.1°F7.8°C 31.7°F-0.2°C 57% 8.1 mph SW13.0 kmh SW 13.8 mph22.2 kmh 29.87 in1011.5 mb - 0.00 in0.0 mm 0.00 in0.0 mm
11:40 AM 46.6°F8.1°C 32.2°F0.1°C 57% 4.6 mph SW7.4 kmh SW 9.2 mph14.8 kmh 29.86 in1011.2 mb - 0.00 in0.0 mm 0.00 in0.0 mm
11:50 AM 46.2°F7.9°C 31.8°F-0.1°C 57% 4.6 mph SW7.4 kmh SW 9.2 mph14.8 kmh 29.86 in1011.2 mb - 0.00 in0.0 mm 0.00 in0.0 mm
12:00 PM 45.5°F7.5°C 32.0°F0.0°C 59% 4.6 mph WSW7.4 kmh WSW 11.5 mph18.5 kmh 29.86 in1011.2 mb - 0.00 in0.0 mm 0.00 in0.0 mm
12:10 PM 45.5°F7.5°C 32.0°F0.0°C 59% 5.8 mph SW9.3 kmh SW 8.1 mph13.0 kmh 29.86 in1011.2 mb - 0.00 in0.0 mm 0.00 in0.0 mm
12:20 PM 45.1°F7.3°C 32.0°F0.0°C 60% 4.6 mph W7.4 kmh W 8.1 mph13.0 kmh 29.86 in1011.2 mb - 0.00 in0.0 mm 0.00 in0.0 mm
12:30 PM 43.8°F6.6°C 32.4°F0.2°C 64% 6.9 mph W11.1 kmh W 11.5 mph18.5 kmh 29.87 in1011.5 mb - 0.00 in0.0 mm 0.00 in0.0 mm
12:40 PM 42.4°F5.8°C 33.0°F0.6°C 69% 3.5 mph W5.6 kmh W 10.4 mph16.7 kmh 29.87 in1011.5 mb - 0.01 in0.3 mm 0.01 in0.3 mm
12:50 PM 41.2°F5.1°C 33.6°F0.9°C 74% 4.6 mph W7.4 kmh W 6.9 mph11.1 kmh 29.88 in1011.9 mb - 0.01 in0.3 mm 0.01 in0.3 mm
01:00 PM 40.8°F4.9°C 34.1°F1.2°C 77% 2.3 mph WSW3.7 kmh WSW 9.2 mph14.8 kmh 29.88 in1011.9 mb - 0.01 in0.3 mm 0.01 in0.3 mm
01:10 PM 41.5°F5.3°C 34.5°F1.4°C 76% 6.9 mph W11.1 kmh W 12.7 mph20.4 kmh 29.87 in1011.5 mb - 0.01 in0.3 mm 0.01 in0.3 mm
01:20 PM 42.9°F6.1°C 35.2°F1.8°C 74% 4.6 mph WSW7.4 kmh WSW 11.5 mph18.5 kmh 29.86 in1011.2 mb - 0.01 in0.3 mm 0.01 in0.3 mm
01:30 PM 44.2°F6.8°C 35.0°F1.7°C 70% 5.8 mph WSW9.3 kmh WSW 9.2 mph14.8 kmh 29.86 in1011.2 mb - 0.01 in0.3 mm 0.01 in0.3 mm
01:40 PM 45.4°F7.4°C 35.1°F1.7°C 67% 5.8 mph SW9.3 kmh SW 6.9 mph11.1 kmh 29.85 in1010.8 mb - 0.00 in0.0 mm 0.01 in0.3 mm
01:50 PM 45.2°F7.3°C 34.1°F1.2°C 65% 4.6 mph WSW7.4 kmh WSW 8.1 mph13.0 kmh 29.85 in1010.8 mb - 0.00 in0.0 mm 0.01 in0.3 mm
02:00 PM 44.8°F7.1°C 33.8°F1.0°C 65% 3.5 mph WSW5.6 kmh WSW 5.8 mph9.3 kmh 29.85 in1010.8 mb - 0.00 in0.0 mm 0.01 in0.3 mm
02:10 PM 44.6°F7.0°C 33.6°F0.9°C 65% 6.9 mph W11.1 kmh W 13.8 mph22.2 kmh 29.86 in1011.2 mb - 0.00 in0.0 mm 0.01 in0.3 mm
02:20 PM 44.4°F6.9°C 33.0°F0.6°C 64% 4.6 mph WSW7.4 kmh WSW 9.2 mph14.8 kmh 29.86 in1011.2 mb - 0.00 in0.0 mm 0.01 in0.3 mm
02:30 PM 44.0°F6.7°C 33.0°F0.6°C 65% 6.9 mph W11.1 kmh W 17.3 mph27.8 kmh 29.86 in1011.2 mb - 0.00 in0.0 mm 0.01 in0.3 mm
02:40 PM 44.2°F6.8°C 33.2°F0.7°C 65% 3.5 mph WSW5.6 kmh WSW 4.6 mph7.4 kmh 29.87 in1011.5 mb - 0.00 in0.0 mm 0.01 in0.3 mm
02:50 PM 44.4°F6.9°C 33.7°F0.9°C 66% 2.3 mph WSW3.7 kmh WSW 3.5 mph5.6 kmh 29.86 in1011.2 mb - 0.00 in0.0 mm 0.01 in0.3 mm
03:00 PM 46.1°F7.8°C 34.2°F1.2°C 63% 4.6 mph WNW7.4 kmh WNW 9.2 mph14.8 kmh 29.85 in1010.8 mb - 0.00 in0.0 mm 0.01 in0.3 mm
03:10 PM 46.5°F8.1°C 33.4°F0.8°C 60% 3.5 mph WNW5.6 kmh WNW 9.2 mph14.8 kmh 29.85 in1010.8 mb - 0.00 in0.0 mm 0.01 in0.3 mm
03:20 PM 46.4°F8.0°C 32.8°F0.4°C 59% 1.2 mph NW1.9 kmh NW 8.1 mph13.0 kmh 29.85 in1010.8 mb - 0.00 in0.0 mm 0.01 in0.3 mm
03:30 PM 44.7°F7.1°C 32.5°F0.3°C 62% 3.5 mph WNW5.6 kmh WNW 8.1 mph13.0 kmh 29.86 in1011.2 mb - 0.00 in0.0 mm 0.01 in0.3 mm
03:40 PM 46.6°F8.1°C 33.4°F0.8°C 60% 3.5 mph W5.6 kmh W 16.1 mph25.9 kmh 29.85 in1010.8 mb - 0.00 in0.0 mm 0.01 in0.3 mm
03:50 PM 45.2°F7.3°C 32.5°F0.3°C 61% 2.3 mph WNW3.7 kmh WNW 5.8 mph9.3 kmh 29.86 in1011.2 mb - 0.00 in0.0 mm 0.01 in0.3 mm
04:00 PM 40.8°F4.9°C 32.9°F0.5°C 73% 2.3 mph W3.7 kmh W 2.3 mph3.7 kmh 29.88 in1011.9 mb - 0.02 in0.5 mm 0.03 in0.8 mm
04:10 PM 39.7°F4.3°C 33.4°F0.8°C 78% 3.5 mph WNW5.6 kmh WNW 4.6 mph7.4 kmh 29.88 in1011.9 mb - 0.02 in0.5 mm 0.03 in0.8 mm
04:20 PM 39.4°F4.1°C 33.1°F0.6°C 78% 3.5 mph WNW5.6 kmh WNW 9.2 mph14.8 kmh 29.88 in1011.9 mb - 0.02 in0.5 mm 0.03 in0.8 mm
04:30 PM 39.6°F4.2°C 32.7°F0.4°C 76% 5.8 mph WNW9.3 kmh WNW 15.0 mph24.1 kmh 29.88 in1011.9 mb - 0.02 in0.5 mm 0.03 in0.8 mm
04:40 PM 40.4°F4.7°C 32.4°F0.2°C 73% 3.5 mph NW5.6 kmh NW 5.8 mph9.3 kmh 29.88 in1011.9 mb - 0.02 in0.5 mm 0.03 in0.8 mm
04:50 PM 40.7°F4.8°C 32.4°F0.2°C 72% 2.3 mph WSW3.7 kmh WSW 3.5 mph5.6 kmh 29.88 in1011.9 mb - 0.02 in0.5 mm 0.03 in0.8 mm
05:00 PM 41.0°F5.0°C 33.0°F0.6°C 73% 1.2 mph W1.9 kmh W 2.3 mph3.7 kmh 29.89 in1012.2 mb - 0.00 in0.0 mm 0.03 in0.8 mm
05:10 PM 42.2°F5.7°C 32.8°F0.4°C 69% 1.2 mph NW1.9 kmh NW 4.6 mph7.4 kmh 29.89 in1012.2 mb - 0.00 in0.0 mm 0.03 in0.8 mm
05:20 PM 42.5°F5.8°C 31.2°F-0.4°C 64% 2.3 mph WSW3.7 kmh WSW 3.5 mph5.6 kmh 29.89 in1012.2 mb - 0.00 in0.0 mm 0.03 in0.8 mm
05:30 PM 42.4°F5.8°C 30.7°F-0.7°C 63% 3.5 mph W5.6 kmh W 4.6 mph7.4 kmh 29.89 in1012.2 mb - 0.00 in0.0 mm 0.03 in0.8 mm
05:40 PM 42.1°F5.6°C 27.5°F-2.5°C 56% 6.9 mph W11.1 kmh W 11.5 mph18.5 kmh 29.90 in1012.5 mb - 0.00 in0.0 mm 0.03 in0.8 mm
05:50 PM 41.9°F5.5°C 25.0°F-3.9°C 51% 4.6 mph W7.4 kmh W 12.7 mph20.4 kmh 29.90 in1012.5 mb - 0.00 in0.0 mm 0.03 in0.8 mm
06:00 PM 41.7°F5.4°C 25.8°F-3.4°C 53% 3.5 mph WNW5.6 kmh WNW 25.3 mph40.7 kmh 29.91 in1012.9 mb - 0.00 in0.0 mm 0.03 in0.8 mm
06:10 PM 41.2°F5.1°C 23.5°F-4.7°C 49% 5.8 mph W9.3 kmh W 9.2 mph14.8 kmh 29.92 in1013.2 mb - 0.00 in0.0 mm 0.03 in0.8 mm
06:20 PM 40.9°F4.9°C 22.7°F-5.2°C 48% 6.9 mph NW11.1 kmh NW 11.5 mph18.5 kmh 29.92 in1013.2 mb - 0.00 in0.0 mm 0.03 in0.8 mm
06:30 PM 40.5°F4.7°C 21.8°F-5.7°C 47% 5.8 mph NW9.3 kmh NW 10.4 mph16.7 kmh 29.92 in1013.2 mb - 0.00 in0.0 mm 0.03 in0.8 mm
06:40 PM 40.3°F4.6°C 20.6°F-6.3°C 45% 3.5 mph NW5.6 kmh NW 23.0 mph37.0 kmh 29.93 in1013.5 mb - 0.00 in0.0 mm 0.03 in0.8 mm
06:50 PM 39.9°F4.4°C 21.3°F-5.9°C 47% 2.3 mph W3.7 kmh W 5.8 mph9.3 kmh 29.93 in1013.5 mb - 0.00 in0.0 mm 0.03 in0.8 mm
07:00 PM 39.6°F4.2°C 20.5°F-6.4°C 46% 4.6 mph WNW7.4 kmh WNW 6.9 mph11.1 kmh 29.93 in1013.5 mb - 0.00 in0.0 mm 0.03 in0.8 mm
07:10 PM 39.4°F4.1°C 20.3°F-6.5°C 46% 1.2 mph NW1.9 kmh NW 3.5 mph5.6 kmh 29.94 in1013.9 mb - 0.00 in0.0 mm 0.03 in0.8 mm
07:20 PM 39.1°F3.9°C 20.5°F-6.4°C 47% 1.2 mph WNW1.9 kmh WNW 3.5 mph5.6 kmh 29.94 in1013.9 mb - 0.00 in0.0 mm 0.03 in0.8 mm
07:30 PM 38.7°F3.7°C 20.7°F-6.3°C 48% 1.2 mph WNW1.9 kmh WNW 10.4 mph16.7 kmh 29.95 in1014.2 mb - 0.00 in0.0 mm 0.03 in0.8 mm
07:40 PM 38.5°F3.6°C 21.0°F-6.1°C 49% 2.3 mph NW3.7 kmh NW 4.6 mph7.4 kmh 29.96 in1014.6 mb - 0.00 in0.0 mm 0.03 in0.8 mm
07:50 PM 38.4°F3.6°C 21.3°F-5.9°C 50% 3.5 mph NW5.6 kmh NW 4.6 mph7.4 kmh 29.97 in1014.9 mb - 0.00 in0.0 mm 0.03 in0.8 mm
08:00 PM 38.2°F3.4°C 21.6°F-5.8°C 51% 3.5 mph NW5.6 kmh NW 5.8 mph9.3 kmh 29.98 in1015.2 mb - 0.00 in0.0 mm 0.03 in0.8 mm
08:10 PM 38.1°F3.4°C 22.0°F-5.6°C 52% 1.2 mph NNW1.9 kmh NNW 6.9 mph11.1 kmh 29.98 in1015.2 mb - 0.00 in0.0 mm 0.03 in0.8 mm
08:20 PM 37.7°F3.2°C 22.1°F-5.5°C 53% 2.3 mph W3.7 kmh W 4.6 mph7.4 kmh 29.99 in1015.6 mb - 0.00 in0.0 mm 0.03 in0.8 mm
08:30 PM 37.4°F3.0°C 22.3°F-5.4°C 54% 2.3 mph NW3.7 kmh NW 3.5 mph5.6 kmh 30.01 in1016.3 mb - 0.00 in0.0 mm 0.03 in0.8 mm
08:40 PM 37.3°F2.9°C 22.1°F-5.5°C 54% 2.3 mph NW3.7 kmh NW 9.2 mph14.8 kmh 30.01 in1016.3 mb - 0.00 in0.0 mm 0.03 in0.8 mm
08:50 PM 37.0°F2.8°C 21.0°F-6.1°C 52% 2.3 mph NW3.7 kmh NW 4.6 mph7.4 kmh 30.02 in1016.6 mb - 0.00 in0.0 mm 0.03 in0.8 mm
09:00 PM 36.6°F2.6°C 20.2°F-6.6°C 51% 4.6 mph NW7.4 kmh NW 6.9 mph11.1 kmh 30.03 in1016.9 mb - 0.00 in0.0 mm 0.03 in0.8 mm
09:10 PM 36.4°F2.4°C 20.0°F-6.7°C 51% 2.3 mph NW3.7 kmh NW 3.5 mph5.6 kmh 30.03 in1016.9 mb - 0.00 in0.0 mm 0.03 in0.8 mm
09:20 PM 36.0°F2.2°C 20.1°F-6.6°C 52% 1.2 mph NW1.9 kmh NW 3.5 mph5.6 kmh 30.03 in1016.9 mb - 0.00 in0.0 mm 0.03 in0.8 mm
09:30 PM 35.6°F2.0°C 19.7°F-6.8°C 52% Calm Calm 1.2 mph1.9 kmh 30.04 in1017.3 mb - 0.00 in0.0 mm 0.03 in0.8 mm
09:40 PM 35.1°F1.7°C 19.2°F-7.1°C 52% 1.2 mph WNW1.9 kmh WNW 3.5 mph5.6 kmh 30.04 in1017.3 mb - 0.00 in0.0 mm 0.03 in0.8 mm
09:50 PM 34.8°F1.6°C 19.4°F-7.0°C 53% Calm Calm 4.6 mph7.4 kmh 30.05 in1017.6 mb - 0.00 in0.0 mm 0.03 in0.8 mm
10:00 PM 34.5°F1.4°C 19.5°F-6.9°C 54% 1.2 mph NW1.9 kmh NW 4.6 mph7.4 kmh 30.05 in1017.6 mb - 0.00 in0.0 mm 0.03 in0.8 mm
10:10 PM 34.1°F1.2°C 19.6°F-6.9°C 55% Calm Calm -- 30.05 in1017.6 mb - 0.00 in0.0 mm 0.03 in0.8 mm
10:20 PM 33.7°F0.9°C 19.7°F-6.8°C 56% Calm Calm 1.2 mph1.9 kmh 30.05 in1017.6 mb - 0.00 in0.0 mm 0.03 in0.8 mm
10:30 PM 33.4°F0.8°C 19.4°F-7.0°C 56% Calm Calm -- 30.05 in1017.6 mb - 0.00 in0.0 mm 0.03 in0.8 mm
10:40 PM 32.9°F0.5°C 19.3°F-7.1°C 57% Calm Calm -- 30.05 in1017.6 mb - 0.00 in0.0 mm 0.03 in0.8 mm
10:50 PM 32.4°F0.2°C 19.6°F-6.9°C 59% Calm Calm -- 30.04 in1017.3 mb - 0.00 in0.0 mm 0.03 in0.8 mm
11:00 PM 31.9°F-0.1°C 19.2°F-7.1°C 59% Calm Calm -- 30.05 in1017.6 mb - 0.00 in0.0 mm 0.18 in4.6 mm
11:10 PM 31.3°F-0.4°C 19.4°F-7.0°C 61% Calm Calm -- 30.05 in1017.6 mb - 0.00 in0.0 mm 0.18 in4.6 mm
11:20 PM 30.7°F-0.7°C 19.2°F-7.1°C 62% Calm Calm -- 30.05 in1017.6 mb - 0.00 in0.0 mm 0.18 in4.6 mm
11:30 PM 30.2°F-1.0°C 19.1°F-7.2°C 63% Calm Calm -- 30.06 in1017.9 mb - 0.00 in0.0 mm 0.18 in4.6 mm
11:40 PM 29.7°F-1.3°C 19.4°F-7.0°C 65% Calm Calm -- 30.05 in1017.6 mb - 0.00 in0.0 mm 0.18 in4.6 mm
11:50 PM 29.5°F-1.4°C 19.2°F-7.1°C 65% Calm Calm -- 30.06 in1017.9 mb - 0.00 in0.0 mm 0.18 in4.6 mm